JST122 YMML-YBSU
Flight info
| Callsign | JST122 |
|---|---|
| Flight time | 1h 57m |
| Altitude | 37000 |
| Route | ML H66 IDNER/N0382F190 W214 GOMOL/N0458F360 Q69 SU |
| Aircraft | A320/M-SDE3FGHIRWY/LB1 |
Departure
| Time | 2026-05-04 15:12 |
|---|---|
| Airport | Melbourne Airport (YMML) |
Arrival
| Time | 2026-05-04 17:10 |
|---|---|
| Airport | Sunshine Coast Airport (YBSU) |
| Time | Latitude | Longitude | Altitude | Speed | Heading |
|---|---|---|---|---|---|
| 2026-05-04 15:03 | -37.67668 | 144.84480 | 371 ft | 0 kts | 123° |
| 2026-05-04 15:06 | -37.67663 | 144.84471 | 371 ft | 2 kts | 123° |
| 2026-05-04 15:06 | -37.67654 | 144.84453 | 372 ft | 2 kts | 123° |
| 2026-05-04 15:06 | -37.67645 | 144.84436 | 372 ft | 3 kts | 123° |
| 2026-05-04 15:07 | -37.67626 | 144.84401 | 372 ft | 2 kts | 123° |
| 2026-05-04 15:07 | -37.67617 | 144.84383 | 372 ft | 2 kts | 123° |
| 2026-05-04 15:07 | -37.67608 | 144.84365 | 372 ft | 2 kts | 123° |
| 2026-05-04 15:09 | -37.67620 | 144.84368 | 372 ft | 6 kts | 177° |
| 2026-05-04 15:09 | -37.67690 | 144.84365 | 369 ft | 13 kts | 181° |
| 2026-05-04 15:09 | -37.67797 | 144.84381 | 369 ft | 18 kts | 173° |
| 2026-05-04 15:10 | -37.68122 | 144.84440 | 361 ft | 29 kts | 171° |
| 2026-05-04 15:10 | -37.68306 | 144.84476 | 352 ft | 23 kts | 172° |
| 2026-05-04 15:10 | -37.68532 | 144.84303 | 340 ft | 18 kts | 233° |
| 2026-05-04 15:11 | -37.68546 | 144.84145 | 351 ft | 19 kts | 295° |
| 2026-05-04 15:11 | -37.68479 | 144.84078 | 348 ft | 12 kts | 351° |
| 2026-05-04 15:11 | -37.68351 | 144.84056 | 355 ft | 36 kts | 352° |
| 2026-05-04 15:11 | -37.67863 | 144.83965 | 356 ft | 102 kts | 351° |
| 2026-05-04 15:12 | -37.66997 | 144.83795 | 403 ft | 146 kts | 349° |
| 2026-05-04 15:12 | -37.65970 | 144.83596 | 884 ft | 153 kts | 349° |
| 2026-05-04 15:12 | -37.65264 | 144.83466 | 1294 ft | 157 kts | 347° |
| 2026-05-04 15:12 | -37.64171 | 144.83276 | 1965 ft | 160 kts | 344° |
| 2026-05-04 15:13 | -37.62614 | 144.83371 | 2572 ft | 191 kts | 12° |
| 2026-05-04 15:13 | -37.61385 | 144.84187 | 3111 ft | 207 kts | 26° |
| 2026-05-04 15:13 | -37.60153 | 144.85268 | 3492 ft | 226 kts | 29° |
| 2026-05-04 15:13 | -37.58785 | 144.86458 | 3792 ft | 251 kts | 28° |
| 2026-05-04 15:14 | -37.57251 | 144.87738 | 4264 ft | 275 kts | 28° |
| 2026-05-04 15:14 | -37.56172 | 144.88614 | 4759 ft | 283 kts | 27° |
| 2026-05-04 15:14 | -37.54487 | 144.89951 | 5662 ft | 288 kts | 28° |
| 2026-05-04 15:14 | -37.52763 | 144.91285 | 6601 ft | 293 kts | 28° |
| 2026-05-04 15:15 | -37.50439 | 144.93045 | 7830 ft | 296 kts | 28° |
| 2026-05-04 15:15 | -37.48665 | 144.94375 | 8785 ft | 298 kts | 27° |
| 2026-05-04 15:15 | -37.46874 | 144.95707 | 9717 ft | 300 kts | 27° |
| 2026-05-04 15:16 | -37.43771 | 144.97996 | 10527 ft | 329 kts | 27° |
| 2026-05-04 15:16 | -37.41730 | 144.99504 | 10827 ft | 349 kts | 28° |
| 2026-05-04 15:16 | -37.37466 | 145.02668 | 12165 ft | 361 kts | 27° |
| 2026-05-04 15:17 | -37.35291 | 145.04285 | 12870 ft | 366 kts | 27° |
| 2026-05-04 15:17 | -37.30853 | 145.07572 | 14232 ft | 375 kts | 27° |
| 2026-05-04 15:17 | -37.28622 | 145.09219 | 14858 ft | 379 kts | 27° |
| 2026-05-04 15:18 | -37.26338 | 145.10905 | 15490 ft | 383 kts | 27° |
| 2026-05-04 15:18 | -37.24030 | 145.12612 | 16095 ft | 387 kts | 27° |
| 2026-05-04 15:18 | -37.21702 | 145.14332 | 16691 ft | 391 kts | 27° |
| 2026-05-04 15:19 | -37.16962 | 145.17832 | 17907 ft | 399 kts | 27° |
| 2026-05-04 15:19 | -37.14553 | 145.19605 | 18487 ft | 404 kts | 27° |
| 2026-05-04 15:19 | -37.09656 | 145.23200 | 19559 ft | 412 kts | 27° |
| 2026-05-04 15:20 | -37.07253 | 145.25112 | 20044 ft | 419 kts | 34° |
| 2026-05-04 15:20 | -37.04971 | 145.27435 | 20548 ft | 425 kts | 37° |
| 2026-05-04 15:20 | -37.02697 | 145.29802 | 21177 ft | 426 kts | 37° |
| 2026-05-04 15:20 | -37.00411 | 145.32173 | 21721 ft | 428 kts | 37° |
| 2026-05-04 15:21 | -36.98105 | 145.34558 | 22214 ft | 432 kts | 37° |
| 2026-05-04 15:21 | -36.95777 | 145.36959 | 22697 ft | 436 kts | 37° |
| 2026-05-04 15:21 | -36.91055 | 145.41825 | 23553 ft | 445 kts | 37° |
| 2026-05-04 15:22 | -36.88683 | 145.44268 | 23920 ft | 450 kts | 37° |
| 2026-05-04 15:22 | -36.86263 | 145.46758 | 24299 ft | 453 kts | 37° |
| 2026-05-04 15:22 | -36.81355 | 145.51800 | 25078 ft | 460 kts | 37° |
| 2026-05-04 15:23 | -36.78882 | 145.54344 | 25556 ft | 460 kts | 37° |
| 2026-05-04 15:23 | -36.76409 | 145.56888 | 25977 ft | 462 kts | 36° |
| 2026-05-04 15:23 | -36.73952 | 145.59404 | 26357 ft | 464 kts | 36° |
| 2026-05-04 15:23 | -36.71445 | 145.61964 | 26730 ft | 467 kts | 36° |
| 2026-05-04 15:24 | -36.66381 | 145.67130 | 27484 ft | 473 kts | 36° |
| 2026-05-04 15:24 | -36.61251 | 145.72360 | 28224 ft | 480 kts | 36° |
| 2026-05-04 15:25 | -36.58661 | 145.74999 | 28600 ft | 483 kts | 36° |
| 2026-05-04 15:25 | -36.56090 | 145.77619 | 28954 ft | 486 kts | 36° |
| 2026-05-04 15:25 | -36.53478 | 145.80279 | 29402 ft | 486 kts | 34° |
| 2026-05-04 15:26 | -36.48226 | 145.85617 | 30238 ft | 490 kts | 34° |
| 2026-05-04 15:26 | -36.45581 | 145.88301 | 30519 ft | 492 kts | 34° |
| 2026-05-04 15:26 | -36.40285 | 145.93672 | 31384 ft | 491 kts | 33° |
| 2026-05-04 15:27 | -36.37638 | 145.96352 | 31825 ft | 490 kts | 33° |
| 2026-05-04 15:27 | -36.32392 | 146.01659 | 32653 ft | 490 kts | 33° |
| 2026-05-04 15:28 | -36.27112 | 146.06986 | 33599 ft | 488 kts | 32° |
| 2026-05-04 15:28 | -36.24482 | 146.09639 | 34064 ft | 488 kts | 32° |
| 2026-05-04 15:28 | -36.19223 | 146.14930 | 34828 ft | 487 kts | 32° |
| 2026-05-04 15:29 | -36.16593 | 146.17571 | 35181 ft | 486 kts | 32° |
| 2026-05-04 15:30 | -36.06187 | 146.28002 | 36696 ft | 481 kts | 32° |
| 2026-05-04 15:30 | -35.98390 | 146.35790 | 37109 ft | 478 kts | 32° |
| 2026-05-04 15:31 | -35.90639 | 146.43517 | 37105 ft | 477 kts | 32° |
| 2026-05-04 15:32 | -35.77758 | 146.56307 | 37109 ft | 476 kts | 32° |
| 2026-05-04 15:34 | -35.64867 | 146.69054 | 37119 ft | 477 kts | 32° |
| 2026-05-04 15:34 | -35.57099 | 146.76721 | 37123 ft | 477 kts | 32° |
| 2026-05-04 15:35 | -35.49333 | 146.84355 | 37100 ft | 477 kts | 31° |
| 2026-05-04 15:36 | -35.41595 | 146.91945 | 37131 ft | 476 kts | 31° |
| 2026-05-04 15:36 | -35.36416 | 146.97006 | 37114 ft | 476 kts | 31° |
| 2026-05-04 15:37 | -35.31241 | 147.02056 | 37125 ft | 476 kts | 31° |
| 2026-05-04 15:37 | -35.26067 | 147.07108 | 37134 ft | 476 kts | 31° |
| 2026-05-04 15:38 | -35.20927 | 147.12116 | 37133 ft | 475 kts | 31° |
| 2026-05-04 15:38 | -35.15756 | 147.17141 | 37120 ft | 474 kts | 31° |
| 2026-05-04 15:39 | -35.10588 | 147.22155 | 37126 ft | 474 kts | 31° |
| 2026-05-04 15:40 | -35.02869 | 147.29626 | 37104 ft | 474 kts | 30° |
| 2026-05-04 15:40 | -34.97699 | 147.34617 | 37127 ft | 474 kts | 30° |
| 2026-05-04 15:41 | -34.92533 | 147.39595 | 37137 ft | 474 kts | 30° |
| 2026-05-04 15:41 | -34.87364 | 147.44576 | 37147 ft | 474 kts | 31° |
| 2026-05-04 15:42 | -34.82204 | 147.49550 | 37134 ft | 473 kts | 30° |
| 2026-05-04 15:42 | -34.77074 | 147.54465 | 37146 ft | 472 kts | 30° |
| 2026-05-04 15:43 | -34.71910 | 147.59403 | 37150 ft | 472 kts | 30° |
| 2026-05-04 15:43 | -34.66753 | 147.64340 | 37133 ft | 472 kts | 30° |
| 2026-05-04 15:44 | -34.61606 | 147.69259 | 37143 ft | 471 kts | 30° |
| 2026-05-04 15:44 | -34.56491 | 147.74135 | 37148 ft | 470 kts | 30° |
| 2026-05-04 15:45 | -34.51346 | 147.79034 | 37136 ft | 470 kts | 30° |
| 2026-05-04 15:45 | -34.46195 | 147.83930 | 37144 ft | 470 kts | 30° |
| 2026-05-04 15:46 | -34.41056 | 147.88807 | 37153 ft | 470 kts | 30° |
| 2026-05-04 15:46 | -34.35939 | 147.93656 | 37151 ft | 470 kts | 29° |
| 2026-05-04 15:47 | -34.30789 | 147.98528 | 37139 ft | 470 kts | 29° |
| 2026-05-04 15:47 | -34.25638 | 148.03397 | 37149 ft | 470 kts | 29° |
| 2026-05-04 15:48 | -34.20484 | 148.08256 | 37158 ft | 470 kts | 29° |
| 2026-05-04 15:48 | -34.12785 | 148.15490 | 37150 ft | 470 kts | 29° |
| 2026-05-04 15:49 | -34.07629 | 148.20339 | 37148 ft | 470 kts | 29° |
| 2026-05-04 15:49 | -34.02474 | 148.25182 | 37157 ft | 470 kts | 29° |
| 2026-05-04 15:50 | -33.97314 | 148.30008 | 37161 ft | 469 kts | 29° |
| 2026-05-04 15:50 | -33.92192 | 148.34801 | 37160 ft | 469 kts | 29° |
| 2026-05-04 15:51 | -33.87031 | 148.39615 | 37163 ft | 470 kts | 28° |
| 2026-05-04 15:51 | -33.81871 | 148.44420 | 37146 ft | 469 kts | 28° |
| 2026-05-04 15:52 | -33.76707 | 148.49228 | 37140 ft | 469 kts | 29° |
| 2026-05-04 15:52 | -33.71576 | 148.53997 | 37152 ft | 469 kts | 28° |
| 2026-05-04 15:53 | -33.66409 | 148.58783 | 37170 ft | 469 kts | 28° |
| 2026-05-04 15:53 | -33.61242 | 148.63564 | 37142 ft | 469 kts | 28° |
| 2026-05-04 15:54 | -33.56116 | 148.68316 | 37164 ft | 469 kts | 28° |
| 2026-05-04 15:54 | -33.50959 | 148.73092 | 37170 ft | 468 kts | 28° |
| 2026-05-04 15:55 | -33.45802 | 148.77838 | 37140 ft | 467 kts | 28° |
| 2026-05-04 15:55 | -33.40644 | 148.82570 | 37161 ft | 467 kts | 28° |
| 2026-05-04 15:56 | -33.35495 | 148.87299 | 37169 ft | 466 kts | 28° |
| 2026-05-04 15:56 | -33.30385 | 148.91992 | 37173 ft | 466 kts | 28° |
| 2026-05-04 15:57 | -33.25245 | 148.96705 | 37167 ft | 465 kts | 28° |
| 2026-05-04 15:57 | -33.20105 | 149.01406 | 37171 ft | 465 kts | 27° |
| 2026-05-04 15:58 | -33.14966 | 149.06097 | 37164 ft | 465 kts | 27° |
| 2026-05-04 15:58 | -33.09867 | 149.10739 | 37139 ft | 465 kts | 27° |
| 2026-05-04 15:59 | -33.04727 | 149.15413 | 37149 ft | 464 kts | 27° |
| 2026-05-04 15:59 | -32.99588 | 149.20086 | 37153 ft | 465 kts | 27° |
| 2026-05-04 16:00 | -32.94449 | 149.24763 | 37158 ft | 465 kts | 27° |
| 2026-05-04 16:00 | -32.89341 | 149.29399 | 37138 ft | 465 kts | 27° |
| 2026-05-04 16:01 | -32.84191 | 149.34055 | 37149 ft | 465 kts | 27° |
| 2026-05-04 16:01 | -32.79041 | 149.38715 | 37146 ft | 465 kts | 27° |
| 2026-05-04 16:02 | -32.73891 | 149.43359 | 37148 ft | 465 kts | 26° |
| 2026-05-04 16:03 | -32.66186 | 149.50297 | 37132 ft | 466 kts | 26° |
| 2026-05-04 16:03 | -32.61022 | 149.54941 | 37140 ft | 466 kts | 26° |
| 2026-05-04 16:04 | -32.55855 | 149.59581 | 37139 ft | 466 kts | 26° |
| 2026-05-04 16:04 | -32.48039 | 149.66254 | 37127 ft | 462 kts | 23° |
| 2026-05-04 16:05 | -32.42771 | 149.70613 | 37133 ft | 462 kts | 23° |
| 2026-05-04 16:06 | -32.34883 | 149.77207 | 37099 ft | 463 kts | 22° |
| 2026-05-04 16:07 | -32.24410 | 149.86010 | 37117 ft | 463 kts | 22° |
| 2026-05-04 16:08 | -32.13877 | 149.94800 | 37125 ft | 464 kts | 22° |
| 2026-05-04 16:09 | -32.00734 | 150.05748 | 37138 ft | 464 kts | 22° |
| 2026-05-04 16:10 | -31.90177 | 150.14519 | 37117 ft | 464 kts | 21° |
| 2026-05-04 16:11 | -31.79630 | 150.23242 | 37110 ft | 465 kts | 21° |
| 2026-05-04 16:12 | -31.63727 | 150.36361 | 37110 ft | 466 kts | 20° |
| 2026-05-04 16:13 | -31.53143 | 150.45066 | 37112 ft | 466 kts | 20° |
| 2026-05-04 16:14 | -31.42520 | 150.53770 | 37119 ft | 466 kts | 20° |
| 2026-05-04 16:16 | -31.29279 | 150.64588 | 37115 ft | 466 kts | 20° |
| 2026-05-04 16:17 | -31.15971 | 150.75419 | 37105 ft | 466 kts | 20° |
| 2026-05-04 16:18 | -31.05401 | 150.84266 | 37119 ft | 483 kts | 27° |
| 2026-05-04 16:19 | -30.92858 | 150.97358 | 37114 ft | 484 kts | 27° |
| 2026-05-04 16:20 | -30.80341 | 151.10330 | 37150 ft | 482 kts | 27° |
| 2026-05-04 16:22 | -30.67867 | 151.23245 | 37147 ft | 481 kts | 27° |
| 2026-05-04 16:23 | -30.52861 | 151.38688 | 37146 ft | 480 kts | 27° |
| 2026-05-04 16:25 | -30.37902 | 151.54029 | 37162 ft | 479 kts | 27° |
| 2026-05-04 16:26 | -30.20426 | 151.71858 | 37148 ft | 480 kts | 28° |
| 2026-05-04 16:28 | -30.07883 | 151.84606 | 37169 ft | 481 kts | 27° |
| 2026-05-04 16:29 | -29.90320 | 152.02405 | 37139 ft | 482 kts | 28° |
| 2026-05-04 16:31 | -29.77732 | 152.15081 | 37152 ft | 482 kts | 28° |
| 2026-05-04 16:32 | -29.62593 | 152.30272 | 37143 ft | 484 kts | 28° |
| 2026-05-04 16:33 | -29.52462 | 152.40422 | 37121 ft | 483 kts | 28° |
| 2026-05-04 16:34 | -29.44869 | 152.48000 | 37130 ft | 482 kts | 28° |
| 2026-05-04 16:35 | -29.29703 | 152.63083 | 37116 ft | 481 kts | 28° |
| 2026-05-04 16:36 | -29.22154 | 152.70574 | 37125 ft | 480 kts | 28° |
| 2026-05-04 16:37 | -29.14588 | 152.78071 | 37122 ft | 479 kts | 28° |
| 2026-05-04 16:38 | -29.04491 | 152.88039 | 37103 ft | 480 kts | 28° |
| 2026-05-04 16:39 | -28.91873 | 153.00461 | 37114 ft | 480 kts | 28° |
| 2026-05-04 16:40 | -28.86715 | 153.05231 | 37091 ft | 468 kts | 20° |
| 2026-05-04 16:40 | -28.81158 | 153.08898 | 37095 ft | 461 kts | 17° |
| 2026-05-04 16:41 | -28.67221 | 153.17950 | 37069 ft | 463 kts | 17° |
| 2026-05-04 16:43 | -28.53235 | 153.27004 | 37087 ft | 463 kts | 17° |
| 2026-05-04 16:43 | -28.44815 | 153.32448 | 37074 ft | 465 kts | 17° |
| 2026-05-04 16:45 | -28.27989 | 153.43279 | 37099 ft | 464 kts | 17° |
| 2026-05-04 16:46 | -28.19508 | 153.48497 | 37086 ft | 451 kts | 9° |
| 2026-05-04 16:46 | -28.13629 | 153.50205 | 37093 ft | 425 kts | 353° |
| 2026-05-04 16:47 | -28.07847 | 153.50310 | 37093 ft | 413 kts | 347° |
| 2026-05-04 16:47 | -28.02124 | 153.50240 | 37083 ft | 414 kts | 347° |
| 2026-05-04 16:48 | -27.93436 | 153.50146 | 36075 ft | 421 kts | 348° |
| 2026-05-04 16:48 | -27.90511 | 153.50112 | 35375 ft | 423 kts | 348° |
| 2026-05-04 16:49 | -27.84560 | 153.50042 | 33730 ft | 432 kts | 348° |
| 2026-05-04 16:49 | -27.78486 | 153.49976 | 31861 ft | 441 kts | 350° |
| 2026-05-04 16:50 | -27.72344 | 153.49917 | 30211 ft | 445 kts | 351° |
| 2026-05-04 16:50 | -27.66231 | 153.49869 | 28947 ft | 433 kts | 352° |
| 2026-05-04 16:51 | -27.60272 | 153.49814 | 27725 ft | 423 kts | 352° |
| 2026-05-04 16:51 | -27.57336 | 153.49782 | 27116 ft | 419 kts | 352° |
| 2026-05-04 16:51 | -27.51599 | 153.49714 | 25936 ft | 411 kts | 352° |
| 2026-05-04 16:52 | -27.45936 | 153.49656 | 24787 ft | 404 kts | 353° |
| 2026-05-04 16:52 | -27.43135 | 153.49631 | 24232 ft | 401 kts | 353° |
| 2026-05-04 16:53 | -27.37581 | 153.49588 | 23108 ft | 396 kts | 353° |
| 2026-05-04 16:53 | -27.29489 | 153.49519 | 21606 ft | 383 kts | 354° |
| 2026-05-04 16:54 | -27.26837 | 153.49495 | 21145 ft | 379 kts | 354° |
| 2026-05-04 16:55 | -27.16485 | 153.49402 | 19193 ft | 365 kts | 354° |
| 2026-05-04 16:55 | -27.11440 | 153.49353 | 18158 ft | 360 kts | 354° |
| 2026-05-04 16:56 | -27.06509 | 153.49310 | 17100 ft | 354 kts | 355° |
| 2026-05-04 16:56 | -26.99222 | 153.49238 | 15561 ft | 345 kts | 355° |
| 2026-05-04 16:57 | -26.96834 | 153.49214 | 15043 ft | 343 kts | 356° |
| 2026-05-04 16:57 | -26.92088 | 153.49173 | 14029 ft | 339 kts | 356° |
| 2026-05-04 16:58 | -26.85083 | 153.49108 | 12420 ft | 334 kts | 356° |
| 2026-05-04 16:58 | -26.82760 | 153.49086 | 11892 ft | 333 kts | 357° |
| 2026-05-04 16:59 | -26.78132 | 153.49026 | 10844 ft | 332 kts | 355° |
| 2026-05-04 17:00 | -26.71687 | 153.43692 | 10103 ft | 285 kts | 290° |
| 2026-05-04 17:00 | -26.69559 | 153.37449 | 8710 ft | 291 kts | 291° |
| 2026-05-04 17:01 | -26.68109 | 153.33247 | 7502 ft | 282 kts | 291° |
| 2026-05-04 17:01 | -26.66785 | 153.29396 | 7214 ft | 252 kts | 291° |
| 2026-05-04 17:02 | -26.65523 | 153.25990 | 6980 ft | 227 kts | 301° |
| 2026-05-04 17:02 | -26.63860 | 153.23061 | 6312 ft | 222 kts | 303° |
| 2026-05-04 17:03 | -26.63025 | 153.21602 | 5982 ft | 223 kts | 302° |
| 2026-05-04 17:03 | -26.62190 | 153.20138 | 5668 ft | 224 kts | 303° |
| 2026-05-04 17:03 | -26.60505 | 153.17185 | 5037 ft | 227 kts | 302° |
| 2026-05-04 17:04 | -26.58804 | 153.14212 | 4387 ft | 230 kts | 302° |
| 2026-05-04 17:04 | -26.57069 | 153.11182 | 3746 ft | 232 kts | 303° |
| 2026-05-04 17:05 | -26.55325 | 153.08131 | 3086 ft | 234 kts | 302° |
| 2026-05-04 17:05 | -26.53654 | 153.05218 | 2883 ft | 213 kts | 302° |
| 2026-05-04 17:06 | -26.52189 | 153.02245 | 1867 ft | 225 kts | 275° |
| 2026-05-04 17:06 | -26.52521 | 153.00641 | 1628 ft | 208 kts | 231° |
| 2026-05-04 17:07 | -26.54866 | 153.00258 | 1239 ft | 179 kts | 136° |
| 2026-05-04 17:07 | -26.55251 | 153.01028 | 1155 ft | 169 kts | 101° |
| 2026-05-04 17:07 | -26.55160 | 153.02624 | 1048 ft | 146 kts | 84° |
| 2026-05-04 17:07 | -26.55045 | 153.03726 | 907 ft | 141 kts | 93° |
| 2026-05-04 17:08 | -26.55331 | 153.04736 | 767 ft | 136 kts | 124° |
| 2026-05-04 17:08 | -26.56704 | 153.06078 | 373 ft | 131 kts | 149° |
| 2026-05-04 17:08 | -26.57429 | 153.06718 | 240 ft | 130 kts | 146° |
| 2026-05-04 17:09 | -26.58171 | 153.07340 | 117 ft | 134 kts | 144° |
| 2026-05-04 17:09 | -26.58908 | 153.07964 | 28 ft | 130 kts | 143° |
| 2026-05-04 17:09 | -26.59486 | 153.08459 | 22 ft | 80 kts | 143° |
| 2026-05-04 17:10 | -26.60020 | 153.08907 | 22 ft | 18 kts | 143° |
| 2026-05-04 17:10 | -26.60155 | 153.08829 | 22 ft | 8 kts | 202° |
| 2026-05-04 17:11 | -26.60216 | 153.08846 | 21 ft | 11 kts | 145° |
| 2026-05-04 17:11 | -26.60243 | 153.08869 | 22 ft | 2 kts | 141° |
| 2026-05-04 17:11 | -26.60301 | 153.08919 | 21 ft | 9 kts | 143° |
| 2026-05-04 17:12 | -26.60358 | 153.08968 | 21 ft | 12 kts | 142° |
| 2026-05-04 17:12 | -26.60471 | 153.09065 | 22 ft | 8 kts | 143° |
| 2026-05-04 17:13 | -26.60630 | 153.09043 | 23 ft | 7 kts | 194° |
| 2026-05-04 17:14 | -26.60693 | 153.08996 | 22 ft | 3 kts | 303° |
| 2026-05-04 17:14 | -26.60686 | 153.08967 | 23 ft | 5 kts | 282° |
| 2026-05-04 17:14 | -26.60679 | 153.08937 | 22 ft | 0 kts | 284° |